sensor_id;sensor_type;location;lat;lon;timestamp;temperature;humidity
33715;DHT22;20043;50.998;4.754;2023-02-23T00:01:55;11.50;99.90
33715;DHT22;20043;50.998;4.754;2023-02-23T00:04:22;11.60;99.90
33715;DHT22;20043;50.998;4.754;2023-02-23T00:06:48;11.60;99.90
33715;DHT22;20043;50.998;4.754;2023-02-23T00:09:16;11.70;99.90
33715;DHT22;20043;50.998;4.754;2023-02-23T00:11:59;11.70;99.90
33715;DHT22;20043;50.998;4.754;2023-02-23T00:14:33;11.60;99.90
33715;DHT22;20043;50.998;4.754;2023-02-23T00:16:59;11.50;99.90
33715;DHT22;20043;50.998;4.754;2023-02-23T00:19:25;11.50;99.90
33715;DHT22;20043;50.998;4.754;2023-02-23T00:21:52;11.40;99.90
33715;DHT22;20043;50.998;4.754;2023-02-23T00:24:18;11.40;99.90
33715;DHT22;20043;50.998;4.754;2023-02-23T00:26:44;11.40;99.90
33715;DHT22;20043;50.998;4.754;2023-02-23T00:29:14;11.40;99.90
33715;DHT22;20043;50.998;4.754;2023-02-23T00:31:44;11.50;99.90
33715;DHT22;20043;50.998;4.754;2023-02-23T00:34:12;11.60;99.90
33715;DHT22;20043;50.998;4.754;2023-02-23T00:36:38;11.70;99.90
33715;DHT22;20043;50.998;4.754;2023-02-23T00:39:07;11.70;99.90
33715;DHT22;20043;50.998;4.754;2023-02-23T00:41:43;11.70;99.90
33715;DHT22;20043;50.998;4.754;2023-02-23T00:44:09;11.70;99.90
33715;DHT22;20043;50.998;4.754;2023-02-23T00:46:35;11.60;99.90
33715;DHT22;20043;50.998;4.754;2023-02-23T00:49:00;11.50;99.90
33715;DHT22;20043;50.998;4.754;2023-02-23T00:51:27;11.50;99.90
33715;DHT22;20043;50.998;4.754;2023-02-23T00:53:57;11.50;99.90
33715;DHT22;20043;50.998;4.754;2023-02-23T00:56:23;11.60;99.90
33715;DHT22;20043;50.998;4.754;2023-02-23T00:58:49;11.50;99.90
33715;DHT22;20043;50.998;4.754;2023-02-23T01:01:15;11.30;99.90
33715;DHT22;20043;50.998;4.754;2023-02-23T01:03:42;11.20;99.90
33715;DHT22;20043;50.998;4.754;2023-02-23T01:06:10;11.30;99.90
33715;DHT22;20043;50.998;4.754;2023-02-23T01:08:39;11.40;99.90
33715;DHT22;20043;50.998;4.754;2023-02-23T01:11:07;11.40;99.90
33715;DHT22;20043;50.998;4.754;2023-02-23T01:13:34;11.50;99.90
33715;DHT22;20043;50.998;4.754;2023-02-23T01:16:03;11.40;99.90
33715;DHT22;20043;50.998;4.754;2023-02-23T01:18:29;11.40;99.90
33715;DHT22;20043;50.998;4.754;2023-02-23T01:20:55;11.40;99.90
33715;DHT22;20043;50.998;4.754;2023-02-23T01:23:20;11.40;99.90
33715;DHT22;20043;50.998;4.754;2023-02-23T01:25:47;11.40;99.90
33715;DHT22;20043;50.998;4.754;2023-02-23T01:28:12;11.30;99.90
33715;DHT22;20043;50.998;4.754;2023-02-23T01:30:39;11.30;99.90
33715;DHT22;20043;50.998;4.754;2023-02-23T01:33:05;11.40;99.90
33715;DHT22;20043;50.998;4.754;2023-02-23T01:35:31;11.40;99.90
33715;DHT22;20043;50.998;4.754;2023-02-23T01:37:57;11.30;99.90
33715;DHT22;20043;50.998;4.754;2023-02-23T01:40:25;11.30;99.90
33715;DHT22;20043;50.998;4.754;2023-02-23T01:43:14;11.30;99.90
33715;DHT22;20043;50.998;4.754;2023-02-23T01:45:42;11.30;99.90
33715;DHT22;20043;50.998;4.754;2023-02-23T01:48:35;11.30;99.90
33715;DHT22;20043;50.998;4.754;2023-02-23T01:51:07;11.30;99.90
33715;DHT22;20043;50.998;4.754;2023-02-23T01:53:35;11.30;99.90
33715;DHT22;20043;50.998;4.754;2023-02-23T01:56:16;11.20;99.90
33715;DHT22;20043;50.998;4.754;2023-02-23T01:58:49;11.30;99.90
33715;DHT22;20043;50.998;4.754;2023-02-23T02:01:19;11.40;99.90
33715;DHT22;20043;50.998;4.754;2023-02-23T02:03:48;11.30;99.90
33715;DHT22;20043;50.998;4.754;2023-02-23T02:06:17;11.30;99.90
33715;DHT22;20043;50.998;4.754;2023-02-23T02:08:47;11.20;99.90
33715;DHT22;20043;50.998;4.754;2023-02-23T02:11:16;11.30;99.90
33715;DHT22;20043;50.998;4.754;2023-02-23T02:14:08;11.20;99.90
33715;DHT22;20043;50.998;4.754;2023-02-23T02:47:24;11.30;99.90
33715;DHT22;20043;50.998;4.754;2023-02-23T02:52:40;11.30;99.90
33715;DHT22;20043;50.998;4.754;2023-02-23T02:55:20;11.30;99.90
33715;DHT22;20043;50.998;4.754;2023-02-23T02:57:50;11.40;99.90
33715;DHT22;20043;50.998;4.754;2023-02-23T03:00:22;11.40;99.90
33715;DHT22;20043;50.998;4.754;2023-02-23T03:06:13;11.40;99.90
33715;DHT22;20043;50.998;4.754;2023-02-23T03:09:24;11.50;99.90
33715;DHT22;20043;50.998;4.754;2023-02-23T03:12:40;11.50;99.90
33715;DHT22;20043;50.998;4.754;2023-02-23T03:15:53;11.50;99.90
33715;DHT22;20043;50.998;4.754;2023-02-23T03:21:51;11.30;99.90
33715;DHT22;20043;50.998;4.754;2023-02-23T03:24:41;11.20;99.90
33715;DHT22;20043;50.998;4.754;2023-02-23T03:33:08;11.30;99.90
33715;DHT22;20043;50.998;4.754;2023-02-23T03:36:06;11.30;99.90
33715;DHT22;20043;50.998;4.754;2023-02-23T03:39:06;11.00;99.90
33715;DHT22;20043;50.998;4.754;2023-02-23T03:41:55;10.70;99.90
33715;DHT22;20043;50.998;4.754;2023-02-23T03:44:42;10.60;99.90
33715;DHT22;20043;50.998;4.754;2023-02-23T03:47:30;10.40;99.90
33715;DHT22;20043;50.998;4.754;2023-02-23T03:50:39;10.30;99.90
33715;DHT22;20043;50.998;4.754;2023-02-23T03:53:37;10.40;99.90
33715;DHT22;20043;50.998;4.754;2023-02-23T03:56:25;10.50;99.90
33715;DHT22;20043;50.998;4.754;2023-02-23T03:59:11;10.40;99.90
33715;DHT22;20043;50.998;4.754;2023-02-23T04:01:57;10.30;99.90
33715;DHT22;20043;50.998;4.754;2023-02-23T04:04:44;10.40;99.90
33715;DHT22;20043;50.998;4.754;2023-02-23T04:07:29;10.30;99.90
33715;DHT22;20043;50.998;4.754;2023-02-23T04:10:14;10.30;99.90
33715;DHT22;20043;50.998;4.754;2023-02-23T04:13:06;10.40;99.90
33715;DHT22;20043;50.998;4.754;2023-02-23T04:15:49;10.40;99.90
33715;DHT22;20043;50.998;4.754;2023-02-23T04:18:28;10.20;99.90
33715;DHT22;20043;50.998;4.754;2023-02-23T04:20:56;10.20;99.90
33715;DHT22;20043;50.998;4.754;2023-02-23T04:23:22;10.20;99.90
33715;DHT22;20043;50.998;4.754;2023-02-23T04:25:48;10.20;99.90
33715;DHT22;20043;50.998;4.754;2023-02-23T04:28:14;10.10;99.90
33715;DHT22;20043;50.998;4.754;2023-02-23T04:30:40;10.20;99.90
33715;DHT22;20043;50.998;4.754;2023-02-23T04:33:06;10.20;99.90
33715;DHT22;20043;50.998;4.754;2023-02-23T04:35:32;10.20;99.90
33715;DHT22;20043;50.998;4.754;2023-02-23T04:37:58;10.30;99.90
33715;DHT22;20043;50.998;4.754;2023-02-23T04:40:24;10.20;99.90
33715;DHT22;20043;50.998;4.754;2023-02-23T04:42:50;10.20;99.90
33715;DHT22;20043;50.998;4.754;2023-02-23T04:45:16;10.10;99.90
33715;DHT22;20043;50.998;4.754;2023-02-23T04:47:42;10.20;99.90
33715;DHT22;20043;50.998;4.754;2023-02-23T04:50:08;10.20;99.90
33715;DHT22;20043;50.998;4.754;2023-02-23T04:52:34;10.40;99.90
33715;DHT22;20043;50.998;4.754;2023-02-23T04:55:02;10.50;99.90
33715;DHT22;20043;50.998;4.754;2023-02-23T04:57:28;10.50;99.90
33715;DHT22;20043;50.998;4.754;2023-02-23T04:59:54;10.40;99.90
33715;DHT22;20043;50.998;4.754;2023-02-23T05:02:19;10.40;99.90
33715;DHT22;20043;50.998;4.754;2023-02-23T05:04:45;10.50;99.90
33715;DHT22;20043;50.998;4.754;2023-02-23T05:07:11;10.50;99.90
33715;DHT22;20043;50.998;4.754;2023-02-23T05:09:36;10.50;99.90
33715;DHT22;20043;50.998;4.754;2023-02-23T05:12:02;10.60;99.90
33715;DHT22;20043;50.998;4.754;2023-02-23T05:14:27;10.60;99.90
33715;DHT22;20043;50.998;4.754;2023-02-23T05:16:53;10.60;99.90
33715;DHT22;20043;50.998;4.754;2023-02-23T05:19:18;10.60;99.90
33715;DHT22;20043;50.998;4.754;2023-02-23T05:21:44;10.50;99.90
33715;DHT22;20043;50.998;4.754;2023-02-23T05:24:10;10.60;99.90
33715;DHT22;20043;50.998;4.754;2023-02-23T05:26:35;10.70;99.90
33715;DHT22;20043;50.998;4.754;2023-02-23T05:29:01;10.70;99.90
33715;DHT22;20043;50.998;4.754;2023-02-23T05:31:27;10.90;99.90
33715;DHT22;20043;50.998;4.754;2023-02-23T05:33:53;11.10;99.90
33715;DHT22;20043;50.998;4.754;2023-02-23T05:36:20;11.10;99.90
33715;DHT22;20043;50.998;4.754;2023-02-23T05:38:46;11.10;99.90
33715;DHT22;20043;50.998;4.754;2023-02-23T05:41:15;11.10;99.90
33715;DHT22;20043;50.998;4.754;2023-02-23T05:43:41;11.10;99.90
33715;DHT22;20043;50.998;4.754;2023-02-23T05:46:11;11.00;99.90
33715;DHT22;20043;50.998;4.754;2023-02-23T05:48:37;11.00;99.90
33715;DHT22;20043;50.998;4.754;2023-02-23T05:51:04;10.90;99.90
33715;DHT22;20043;50.998;4.754;2023-02-23T05:53:31;10.90;99.90
33715;DHT22;20043;50.998;4.754;2023-02-23T05:55:56;10.80;99.90
33715;DHT22;20043;50.998;4.754;2023-02-23T05:58:22;10.70;99.90
33715;DHT22;20043;50.998;4.754;2023-02-23T06:00:48;10.70;99.90
33715;DHT22;20043;50.998;4.754;2023-02-23T06:03:14;10.60;99.90
33715;DHT22;20043;50.998;4.754;2023-02-23T06:05:40;10.80;99.90
33715;DHT22;20043;50.998;4.754;2023-02-23T06:08:07;10.90;99.90
33715;DHT22;20043;50.998;4.754;2023-02-23T06:10:33;10.90;99.90
33715;DHT22;20043;50.998;4.754;2023-02-23T06:12:59;10.70;99.90
33715;DHT22;20043;50.998;4.754;2023-02-23T06:15:24;10.70;99.90
33715;DHT22;20043;50.998;4.754;2023-02-23T06:17:50;10.60;99.90
33715;DHT22;20043;50.998;4.754;2023-02-23T06:20:15;10.60;99.90
33715;DHT22;20043;50.998;4.754;2023-02-23T06:22:41;10.70;99.90
33715;DHT22;20043;50.998;4.754;2023-02-23T06:25:07;10.60;99.90
33715;DHT22;20043;50.998;4.754;2023-02-23T06:27:37;10.70;99.90
33715;DHT22;20043;50.998;4.754;2023-02-23T06:30:04;10.80;99.90
33715;DHT22;20043;50.998;4.754;2023-02-23T06:32:30;11.00;99.90
33715;DHT22;20043;50.998;4.754;2023-02-23T06:34:56;10.90;99.90
33715;DHT22;20043;50.998;4.754;2023-02-23T06:37:21;11.00;99.90
33715;DHT22;20043;50.998;4.754;2023-02-23T06:39:47;10.80;99.90
33715;DHT22;20043;50.998;4.754;2023-02-23T06:42:13;10.70;99.90
33715;DHT22;20043;50.998;4.754;2023-02-23T06:44:39;10.60;99.90
33715;DHT22;20043;50.998;4.754;2023-02-23T06:47:05;10.60;99.90
33715;DHT22;20043;50.998;4.754;2023-02-23T06:49:30;10.60;99.90
33715;DHT22;20043;50.998;4.754;2023-02-23T06:51:56;10.70;99.90
33715;DHT22;20043;50.998;4.754;2023-02-23T06:54:22;10.70;99.90
33715;DHT22;20043;50.998;4.754;2023-02-23T06:56:48;10.70;99.90
33715;DHT22;20043;50.998;4.754;2023-02-23T06:59:14;10.90;99.90
33715;DHT22;20043;50.998;4.754;2023-02-23T07:01:40;11.00;99.90
33715;DHT22;20043;50.998;4.754;2023-02-23T07:04:09;11.10;99.90
33715;DHT22;20043;50.998;4.754;2023-02-23T07:06:35;11.20;99.90
33715;DHT22;20043;50.998;4.754;2023-02-23T07:09:01;11.10;99.90
33715;DHT22;20043;50.998;4.754;2023-02-23T07:11:26;11.10;99.90
33715;DHT22;20043;50.998;4.754;2023-02-23T07:13:52;11.00;99.90
33715;DHT22;20043;50.998;4.754;2023-02-23T07:16:17;10.80;99.90
33715;DHT22;20043;50.998;4.754;2023-02-23T07:18:43;10.90;99.90
33715;DHT22;20043;50.998;4.754;2023-02-23T07:21:09;10.90;99.90
33715;DHT22;20043;50.998;4.754;2023-02-23T07:23:34;10.80;99.90
33715;DHT22;20043;50.998;4.754;2023-02-23T07:26:00;10.70;99.90
33715;DHT22;20043;50.998;4.754;2023-02-23T07:28:26;10.70;99.90
33715;DHT22;20043;50.998;4.754;2023-02-23T07:30:57;10.70;99.90
33715;DHT22;20043;50.998;4.754;2023-02-23T07:33:23;10.70;99.90
33715;DHT22;20043;50.998;4.754;2023-02-23T07:35:50;10.70;99.90
33715;DHT22;20043;50.998;4.754;2023-02-23T07:38:16;10.70;99.90
33715;DHT22;20043;50.998;4.754;2023-02-23T07:40:41;10.70;99.90
33715;DHT22;20043;50.998;4.754;2023-02-23T07:43:09;10.60;99.90
33715;DHT22;20043;50.998;4.754;2023-02-23T07:45:35;10.80;99.90
33715;DHT22;20043;50.998;4.754;2023-02-23T07:48:01;10.80;99.90
33715;DHT22;20043;50.998;4.754;2023-02-23T07:50:27;10.90;99.90
33715;DHT22;20043;50.998;4.754;2023-02-23T07:52:52;10.90;99.90
33715;DHT22;20043;50.998;4.754;2023-02-23T07:55:18;10.70;99.90
33715;DHT22;20043;50.998;4.754;2023-02-23T07:57:44;10.80;99.90
33715;DHT22;20043;50.998;4.754;2023-02-23T08:00:10;10.90;99.90
33715;DHT22;20043;50.998;4.754;2023-02-23T08:02:36;10.90;99.90
33715;DHT22;20043;50.998;4.754;2023-02-23T08:05:02;11.00;99.90
33715;DHT22;20043;50.998;4.754;2023-02-23T08:07:31;11.10;99.90
33715;DHT22;20043;50.998;4.754;2023-02-23T08:09:56;11.20;99.90
33715;DHT22;20043;50.998;4.754;2023-02-23T08:12:22;11.20;99.90
33715;DHT22;20043;50.998;4.754;2023-02-23T08:14:47;11.10;99.90
33715;DHT22;20043;50.998;4.754;2023-02-23T08:17:13;11.10;99.90
33715;DHT22;20043;50.998;4.754;2023-02-23T08:19:39;11.20;99.90
33715;DHT22;20043;50.998;4.754;2023-02-23T08:22:05;11.20;99.90
33715;DHT22;20043;50.998;4.754;2023-02-23T08:24:30;11.20;99.90
33715;DHT22;20043;50.998;4.754;2023-02-23T08:26:57;11.20;99.90
33715;DHT22;20043;50.998;4.754;2023-02-23T08:29:23;11.20;99.90
33715;DHT22;20043;50.998;4.754;2023-02-23T08:31:49;11.10;99.90
33715;DHT22;20043;50.998;4.754;2023-02-23T08:34:18;11.10;99.90
33715;DHT22;20043;50.998;4.754;2023-02-23T08:36:44;11.10;99.90
33715;DHT22;20043;50.998;4.754;2023-02-23T08:39:10;11.10;99.90
33715;DHT22;20043;50.998;4.754;2023-02-23T08:41:37;11.20;99.90
33715;DHT22;20043;50.998;4.754;2023-02-23T08:44:03;11.20;99.90
33715;DHT22;20043;50.998;4.754;2023-02-23T08:46:28;11.20;99.90
33715;DHT22;20043;50.998;4.754;2023-02-23T08:48:55;11.20;99.90
33715;DHT22;20043;50.998;4.754;2023-02-23T08:51:21;11.10;99.90
33715;DHT22;20043;50.998;4.754;2023-02-23T08:53:46;11.00;99.90
33715;DHT22;20043;50.998;4.754;2023-02-23T08:56:12;10.90;99.90
33715;DHT22;20043;50.998;4.754;2023-02-23T08:58:39;10.90;99.90
33715;DHT22;20043;50.998;4.754;2023-02-23T09:01:04;10.90;99.90
33715;DHT22;20043;50.998;4.754;2023-02-23T09:03:31;10.90;99.90
33715;DHT22;20043;50.998;4.754;2023-02-23T09:06:03;10.90;99.90
33715;DHT22;20043;50.998;4.754;2023-02-23T09:08:29;10.90;99.90
33715;DHT22;20043;50.998;4.754;2023-02-23T09:10:55;11.00;99.90
33715;DHT22;20043;50.998;4.754;2023-02-23T09:13:20;11.00;99.90
33715;DHT22;20043;50.998;4.754;2023-02-23T09:15:46;11.10;99.90
33715;DHT22;20043;50.998;4.754;2023-02-23T09:18:12;11.10;99.90
33715;DHT22;20043;50.998;4.754;2023-02-23T09:20:43;11.00;99.90
33715;DHT22;20043;50.998;4.754;2023-02-23T09:23:09;10.90;99.90
33715;DHT22;20043;50.998;4.754;2023-02-23T09:25:39;10.90;99.90
33715;DHT22;20043;50.998;4.754;2023-02-23T09:28:18;11.00;99.90
33715;DHT22;20043;50.998;4.754;2023-02-23T09:30:45;11.00;99.90
33715;DHT22;20043;50.998;4.754;2023-02-23T09:33:11;10.90;99.90
33715;DHT22;20043;50.998;4.754;2023-02-23T09:35:37;10.70;99.90
33715;DHT22;20043;50.998;4.754;2023-02-23T09:38:04;10.60;99.90
33715;DHT22;20043;50.998;4.754;2023-02-23T09:43:18;10.90;99.90
33715;DHT22;20043;50.998;4.754;2023-02-23T09:45:53;10.90;99.90
33715;DHT22;20043;50.998;4.754;2023-02-23T09:48:26;11.10;99.90
33715;DHT22;20043;50.998;4.754;2023-02-23T09:50:54;11.10;99.90
33715;DHT22;20043;50.998;4.754;2023-02-23T09:53:36;11.10;99.90
33715;DHT22;20043;50.998;4.754;2023-02-23T09:56:15;11.10;99.90
33715;DHT22;20043;50.998;4.754;2023-02-23T09:58:42;11.20;99.90
33715;DHT22;20043;50.998;4.754;2023-02-23T10:06:41;11.20;99.90
33715;DHT22;20043;50.998;4.754;2023-02-23T10:17:38;11.50;99.90
33715;DHT22;20043;50.998;4.754;2023-02-23T10:20:16;11.30;99.90
33715;DHT22;20043;50.998;4.754;2023-02-23T10:22:44;11.20;99.90
33715;DHT22;20043;50.998;4.754;2023-02-23T10:25:15;11.00;99.90
33715;DHT22;20043;50.998;4.754;2023-02-23T10:27:45;11.00;99.90
33715;DHT22;20043;50.998;4.754;2023-02-23T10:35:17;11.00;99.90
33715;DHT22;20043;50.998;4.754;2023-02-23T10:37:45;11.10;99.90
33715;DHT22;20043;50.998;4.754;2023-02-23T10:40:16;11.20;99.90
33715;DHT22;20043;50.998;4.754;2023-02-23T10:42:42;11.50;99.90
33715;DHT22;20043;50.998;4.754;2023-02-23T10:45:12;11.50;99.90
33715;DHT22;20043;50.998;4.754;2023-02-23T10:47:43;11.70;99.90
33715;DHT22;20043;50.998;4.754;2023-02-23T10:50:10;11.60;99.90
33715;DHT22;20043;50.998;4.754;2023-02-23T10:52:44;11.70;99.90
33715;DHT22;20043;50.998;4.754;2023-02-23T10:55:31;11.90;99.90
33715;DHT22;20043;50.998;4.754;2023-02-23T10:58:05;11.80;99.90
33715;DHT22;20043;50.998;4.754;2023-02-23T11:00:34;12.00;99.90
33715;DHT22;20043;50.998;4.754;2023-02-23T11:03:01;12.10;99.90
33715;DHT22;20043;50.998;4.754;2023-02-23T11:08:27;11.90;99.90
33715;DHT22;20043;50.998;4.754;2023-02-23T11:10:57;11.90;99.90
33715;DHT22;20043;50.998;4.754;2023-02-23T11:13:26;12.10;99.90
33715;DHT22;20043;50.998;4.754;2023-02-23T11:16:06;12.10;99.90
33715;DHT22;20043;50.998;4.754;2023-02-23T11:18:34;12.20;99.90
33715;DHT22;20043;50.998;4.754;2023-02-23T11:21:00;11.90;99.90
33715;DHT22;20043;50.998;4.754;2023-02-23T11:23:30;12.00;99.90
33715;DHT22;20043;50.998;4.754;2023-02-23T11:26:00;12.10;99.90
33715;DHT22;20043;50.998;4.754;2023-02-23T11:28:32;12.00;99.90
33715;DHT22;20043;50.998;4.754;2023-02-23T11:31:17;12.00;99.90
33715;DHT22;20043;50.998;4.754;2023-02-23T11:33:44;12.20;99.90
33715;DHT22;20043;50.998;4.754;2023-02-23T11:39:05;12.10;99.90
33715;DHT22;20043;50.998;4.754;2023-02-23T11:41:31;12.10;99.90
33715;DHT22;20043;50.998;4.754;2023-02-23T11:44:00;12.20;99.90
33715;DHT22;20043;50.998;4.754;2023-02-23T11:46:29;12.20;99.90
33715;DHT22;20043;50.998;4.754;2023-02-23T11:49:18;12.10;99.90
33715;DHT22;20043;50.998;4.754;2023-02-23T11:51:48;12.00;99.90
33715;DHT22;20043;50.998;4.754;2023-02-23T11:54:40;12.10;99.90
33715;DHT22;20043;50.998;4.754;2023-02-23T11:57:08;12.30;99.90
33715;DHT22;20043;50.998;4.754;2023-02-23T11:59:37;12.30;99.90
33715;DHT22;20043;50.998;4.754;2023-02-23T12:04:40;12.40;99.90
33715;DHT22;20043;50.998;4.754;2023-02-23T12:10:18;12.50;99.90
33715;DHT22;20043;50.998;4.754;2023-02-23T12:12:51;12.20;99.90
33715;DHT22;20043;50.998;4.754;2023-02-23T12:21:14;12.10;99.90
33715;DHT22;20043;50.998;4.754;2023-02-23T12:23:44;12.20;99.90
33715;DHT22;20043;50.998;4.754;2023-02-23T12:26:16;12.00;99.90
33715;DHT22;20043;50.998;4.754;2023-02-23T12:34:24;12.00;99.90
33715;DHT22;20043;50.998;4.754;2023-02-23T12:37:15;12.10;99.90
33715;DHT22;20043;50.998;4.754;2023-02-23T12:39:45;12.30;99.90
33715;DHT22;20043;50.998;4.754;2023-02-23T12:42:38;12.50;99.90
33715;DHT22;20043;50.998;4.754;2023-02-23T12:45:06;12.60;99.90
33715;DHT22;20043;50.998;4.754;2023-02-23T12:50:17;12.50;99.90
33715;DHT22;20043;50.998;4.754;2023-02-23T12:52:52;12.40;99.90
33715;DHT22;20043;50.998;4.754;2023-02-23T12:55:48;12.30;99.90
33715;DHT22;20043;50.998;4.754;2023-02-23T12:58:28;12.30;99.90
33715;DHT22;20043;50.998;4.754;2023-02-23T13:01:09;12.40;99.90
33715;DHT22;20043;50.998;4.754;2023-02-23T13:03:44;12.30;99.90
33715;DHT22;20043;50.998;4.754;2023-02-23T13:06:38;12.20;99.90
33715;DHT22;20043;50.998;4.754;2023-02-23T13:09:32;12.40;99.90
33715;DHT22;20043;50.998;4.754;2023-02-23T13:12:31;12.60;99.90
33715;DHT22;20043;50.998;4.754;2023-02-23T13:17:50;12.80;99.90
33715;DHT22;20043;50.998;4.754;2023-02-23T13:20:25;12.80;99.90
33715;DHT22;20043;50.998;4.754;2023-02-23T13:23:02;12.90;99.90
33715;DHT22;20043;50.998;4.754;2023-02-23T13:25:53;12.90;99.90
33715;DHT22;20043;50.998;4.754;2023-02-23T13:28:52;12.40;99.90
33715;DHT22;20043;50.998;4.754;2023-02-23T13:31:47;12.30;99.90
33715;DHT22;20043;50.998;4.754;2023-02-23T13:34:35;12.20;99.90
33715;DHT22;20043;50.998;4.754;2023-02-23T13:37:05;12.40;99.90
33715;DHT22;20043;50.998;4.754;2023-02-23T13:42:55;12.40;99.90
33715;DHT22;20043;50.998;4.754;2023-02-23T13:51:40;12.10;99.90
33715;DHT22;20043;50.998;4.754;2023-02-23T13:56:48;12.00;99.90
33715;DHT22;20043;50.998;4.754;2023-02-23T13:59:19;12.00;99.90
33715;DHT22;20043;50.998;4.754;2023-02-23T14:01:49;12.00;99.90
33715;DHT22;20043;50.998;4.754;2023-02-23T14:04:36;12.00;99.90
33715;DHT22;20043;50.998;4.754;2023-02-23T14:10:05;12.10;99.90
33715;DHT22;20043;50.998;4.754;2023-02-23T14:12:42;12.10;99.90
33715;DHT22;20043;50.998;4.754;2023-02-23T14:17:59;11.90;99.90
33715;DHT22;20043;50.998;4.754;2023-02-23T14:26:36;12.10;99.90
33715;DHT22;20043;50.998;4.754;2023-02-23T14:29:22;12.00;99.90
33715;DHT22;20043;50.998;4.754;2023-02-23T14:32:19;12.00;99.90
33715;DHT22;20043;50.998;4.754;2023-02-23T14:34:57;11.80;99.90
33715;DHT22;20043;50.998;4.754;2023-02-23T14:39:52;11.70;99.90
33715;DHT22;20043;50.998;4.754;2023-02-23T14:42:22;11.90;99.90
33715;DHT22;20043;50.998;4.754;2023-02-23T14:44:49;12.20;99.90
33715;DHT22;20043;50.998;4.754;2023-02-23T14:47:26;12.00;99.90
33715;DHT22;20043;50.998;4.754;2023-02-23T14:49:57;12.00;99.90
33715;DHT22;20043;50.998;4.754;2023-02-23T14:52:27;12.20;99.90
33715;DHT22;20043;50.998;4.754;2023-02-23T14:57:35;12.50;99.90
33715;DHT22;20043;50.998;4.754;2023-02-23T15:00:25;12.60;99.90
33715;DHT22;20043;50.998;4.754;2023-02-23T15:03:03;12.60;99.90
33715;DHT22;20043;50.998;4.754;2023-02-23T15:05:36;12.50;99.90
33715;DHT22;20043;50.998;4.754;2023-02-23T15:08:07;12.30;99.90
33715;DHT22;20043;50.998;4.754;2023-02-23T15:10:37;12.30;99.90
33715;DHT22;20043;50.998;4.754;2023-02-23T15:13:13;12.50;99.90
33715;DHT22;20043;50.998;4.754;2023-02-23T15:15:44;12.40;99.90
33715;DHT22;20043;50.998;4.754;2023-02-23T15:21:14;12.40;99.90
33715;DHT22;20043;50.998;4.754;2023-02-23T15:23:43;12.40;99.90
33715;DHT22;20043;50.998;4.754;2023-02-23T15:26:27;12.30;99.90
33715;DHT22;20043;50.998;4.754;2023-02-23T15:31:38;12.30;99.90
33715;DHT22;20043;50.998;4.754;2023-02-23T15:34:15;12.50;99.90
33715;DHT22;20043;50.998;4.754;2023-02-23T15:36:47;12.60;99.90
33715;DHT22;20043;50.998;4.754;2023-02-23T15:39:19;12.50;99.90
33715;DHT22;20043;50.998;4.754;2023-02-23T15:41:47;12.30;99.90
33715;DHT22;20043;50.998;4.754;2023-02-23T15:44:21;12.20;99.90
33715;DHT22;20043;50.998;4.754;2023-02-23T15:46:58;12.20;99.90
33715;DHT22;20043;50.998;4.754;2023-02-23T15:49:31;12.10;99.90
33715;DHT22;20043;50.998;4.754;2023-02-23T15:52:21;11.90;99.90
33715;DHT22;20043;50.998;4.754;2023-02-23T15:54:53;11.40;99.90
33715;DHT22;20043;50.998;4.754;2023-02-23T15:57:30;11.30;99.90
33715;DHT22;20043;50.998;4.754;2023-02-23T16:00:01;11.20;99.90
33715;DHT22;20043;50.998;4.754;2023-02-23T16:02:35;11.20;99.90
33715;DHT22;20043;50.998;4.754;2023-02-23T16:05:09;11.30;99.90
33715;DHT22;20043;50.998;4.754;2023-02-23T16:07:41;11.30;99.90
33715;DHT22;20043;50.998;4.754;2023-02-23T16:10:22;11.20;99.90
33715;DHT22;20043;50.998;4.754;2023-02-23T16:12:51;11.10;99.90
33715;DHT22;20043;50.998;4.754;2023-02-23T16:15:25;11.10;99.90
33715;DHT22;20043;50.998;4.754;2023-02-23T16:17:56;10.80;99.90
33715;DHT22;20043;50.998;4.754;2023-02-23T16:20:33;10.90;99.90
33715;DHT22;20043;50.998;4.754;2023-02-23T16:23:01;11.00;99.90
33715;DHT22;20043;50.998;4.754;2023-02-23T16:25:29;11.00;99.90
33715;DHT22;20043;50.998;4.754;2023-02-23T16:28:08;11.30;99.90
33715;DHT22;20043;50.998;4.754;2023-02-23T16:31:03;11.30;99.90
33715;DHT22;20043;50.998;4.754;2023-02-23T16:33:51;11.20;99.90
33715;DHT22;20043;50.998;4.754;2023-02-23T16:36:20;11.10;99.90
33715;DHT22;20043;50.998;4.754;2023-02-23T16:39:00;11.00;99.90
33715;DHT22;20043;50.998;4.754;2023-02-23T16:41:32;10.90;99.90
33715;DHT22;20043;50.998;4.754;2023-02-23T16:44:03;11.00;99.90
33715;DHT22;20043;50.998;4.754;2023-02-23T16:49:17;11.20;99.90
33715;DHT22;20043;50.998;4.754;2023-02-23T16:51:44;11.40;99.90
33715;DHT22;20043;50.998;4.754;2023-02-23T16:54:10;11.50;99.90
33715;DHT22;20043;50.998;4.754;2023-02-23T16:56:37;11.50;99.90
33715;DHT22;20043;50.998;4.754;2023-02-23T16:59:03;11.40;99.90
33715;DHT22;20043;50.998;4.754;2023-02-23T17:01:29;11.30;99.90
33715;DHT22;20043;50.998;4.754;2023-02-23T17:03:55;11.40;99.90
33715;DHT22;20043;50.998;4.754;2023-02-23T17:06:23;11.20;99.90
33715;DHT22;20043;50.998;4.754;2023-02-23T17:08:49;11.10;99.90
33715;DHT22;20043;50.998;4.754;2023-02-23T17:11:14;10.70;99.90
33715;DHT22;20043;50.998;4.754;2023-02-23T17:13:40;10.70;99.90
33715;DHT22;20043;50.998;4.754;2023-02-23T17:16:10;10.80;99.90
33715;DHT22;20043;50.998;4.754;2023-02-23T17:18:37;11.00;99.90
33715;DHT22;20043;50.998;4.754;2023-02-23T17:21:06;11.20;99.90
33715;DHT22;20043;50.998;4.754;2023-02-23T17:23:33;11.20;99.90
33715;DHT22;20043;50.998;4.754;2023-02-23T17:26:22;11.30;99.90
33715;DHT22;20043;50.998;4.754;2023-02-23T17:28:48;11.30;99.90
33715;DHT22;20043;50.998;4.754;2023-02-23T17:31:15;11.30;99.90
33715;DHT22;20043;50.998;4.754;2023-02-23T17:33:42;11.00;99.90
33715;DHT22;20043;50.998;4.754;2023-02-23T17:36:12;11.10;99.90
33715;DHT22;20043;50.998;4.754;2023-02-23T17:38:38;11.10;99.90
33715;DHT22;20043;50.998;4.754;2023-02-23T17:41:13;11.30;99.90
33715;DHT22;20043;50.998;4.754;2023-02-23T17:43:39;11.40;99.90
33715;DHT22;20043;50.998;4.754;2023-02-23T17:46:05;11.50;99.90
33715;DHT22;20043;50.998;4.754;2023-02-23T17:48:31;11.70;99.90
33715;DHT22;20043;50.998;4.754;2023-02-23T17:51:02;11.90;99.90
33715;DHT22;20043;50.998;4.754;2023-02-23T17:53:29;11.90;99.90
33715;DHT22;20043;50.998;4.754;2023-02-23T17:55:56;11.90;99.90
33715;DHT22;20043;50.998;4.754;2023-02-23T17:58:22;11.80;99.90
33715;DHT22;20043;50.998;4.754;2023-02-23T18:00:52;11.50;99.90
33715;DHT22;20043;50.998;4.754;2023-02-23T18:03:17;11.40;99.90
33715;DHT22;20043;50.998;4.754;2023-02-23T18:05:43;11.30;99.90
33715;DHT22;20043;50.998;4.754;2023-02-23T18:08:09;11.30;99.90
33715;DHT22;20043;50.998;4.754;2023-02-23T18:10:34;11.40;99.90